sensor_id;sensor_type;location;lat;lon;timestamp;P1;durP1;ratioP1;P2;durP2;ratioP2
29358;SDS011;16347;53.232;6.556;2023-11-19T00:01:14;85.22;;;23.67;;
29358;SDS011;16347;53.232;6.556;2023-11-19T00:03:42;77.03;;;24.83;;
29358;SDS011;16347;53.232;6.556;2023-11-19T00:06:10;72.43;;;23.52;;
29358;SDS011;16347;53.232;6.556;2023-11-19T00:08:38;66.88;;;22.45;;
29358;SDS011;16347;53.232;6.556;2023-11-19T00:11:05;70.43;;;23.70;;
29358;SDS011;16347;53.232;6.556;2023-11-19T00:13:35;76.97;;;22.63;;
29358;SDS011;16347;53.232;6.556;2023-11-19T00:16:03;75.13;;;21.73;;
29358;SDS011;16347;53.232;6.556;2023-11-19T00:18:31;77.35;;;23.20;;
29358;SDS011;16347;53.232;6.556;2023-11-19T00:20:59;77.93;;;22.13;;
29358;SDS011;16347;53.232;6.556;2023-11-19T00:23:28;79.03;;;22.23;;
29358;SDS011;16347;53.232;6.556;2023-11-19T00:25:56;68.72;;;20.42;;
29358;SDS011;16347;53.232;6.556;2023-11-19T00:28:24;69.15;;;19.67;;
29358;SDS011;16347;53.232;6.556;2023-11-19T00:30:53;60.65;;;18.08;;
29358;SDS011;16347;53.232;6.556;2023-11-19T00:33:21;59.30;;;17.33;;
29358;SDS011;16347;53.232;6.556;2023-11-19T00:35:49;63.38;;;15.88;;
29358;SDS011;16347;53.232;6.556;2023-11-19T00:38:17;69.93;;;14.88;;
29358;SDS011;16347;53.232;6.556;2023-11-19T00:40:45;54.55;;;14.38;;
29358;SDS011;16347;53.232;6.556;2023-11-19T00:43:13;64.57;;;13.35;;
29358;SDS011;16347;53.232;6.556;2023-11-19T00:45:41;61.35;;;12.02;;
29358;SDS011;16347;53.232;6.556;2023-11-19T00:48:10;58.05;;;10.55;;
29358;SDS011;16347;53.232;6.556;2023-11-19T00:50:39;65.93;;;10.20;;
29358;SDS011;16347;53.232;6.556;2023-11-19T00:53:10;46.88;;;12.52;;
29358;SDS011;16347;53.232;6.556;2023-11-19T00:55:38;62.65;;;9.15;;
29358;SDS011;16347;53.232;6.556;2023-11-19T00:58:08;45.67;;;7.40;;
29358;SDS011;16347;53.232;6.556;2023-11-19T01:00:36;58.55;;;8.63;;
29358;SDS011;16347;53.232;6.556;2023-11-19T01:03:05;38.22;;;6.88;;
29358;SDS011;16347;53.232;6.556;2023-11-19T01:05:35;51.78;;;8.15;;
29358;SDS011;16347;53.232;6.556;2023-11-19T01:08:03;52.60;;;7.70;;
29358;SDS011;16347;53.232;6.556;2023-11-19T01:10:32;60.92;;;8.40;;
29358;SDS011;16347;53.232;6.556;2023-11-19T01:13:00;65.28;;;8.07;;
29358;SDS011;16347;53.232;6.556;2023-11-19T01:15:29;60.70;;;8.40;;
29358;SDS011;16347;53.232;6.556;2023-11-19T01:17:57;52.97;;;7.80;;
29358;SDS011;16347;53.232;6.556;2023-11-19T01:20:25;59.83;;;8.10;;
29358;SDS011;16347;53.232;6.556;2023-11-19T01:22:55;52.88;;;7.70;;
29358;SDS011;16347;53.232;6.556;2023-11-19T01:25:23;55.25;;;6.85;;
29358;SDS011;16347;53.232;6.556;2023-11-19T01:27:51;64.72;;;7.28;;
29358;SDS011;16347;53.232;6.556;2023-11-19T01:30:19;48.25;;;6.70;;
29358;SDS011;16347;53.232;6.556;2023-11-19T01:32:48;54.35;;;7.57;;
29358;SDS011;16347;53.232;6.556;2023-11-19T01:35:16;51.85;;;7.10;;
29358;SDS011;16347;53.232;6.556;2023-11-19T01:37:44;65.35;;;8.05;;
29358;SDS011;16347;53.232;6.556;2023-11-19T01:40:13;63.25;;;9.45;;
29358;SDS011;16347;53.232;6.556;2023-11-19T01:42:42;58.92;;;8.07;;
29358;SDS011;16347;53.232;6.556;2023-11-19T01:45:10;53.38;;;8.00;;
29358;SDS011;16347;53.232;6.556;2023-11-19T01:47:49;56.00;;;6.50;;
29358;SDS011;16347;53.232;6.556;2023-11-19T01:50:18;51.38;;;6.35;;
29358;SDS011;16347;53.232;6.556;2023-11-19T01:52:46;51.25;;;6.57;;
29358;SDS011;16347;53.232;6.556;2023-11-19T01:55:15;57.58;;;7.38;;
29358;SDS011;16347;53.232;6.556;2023-11-19T01:57:43;58.65;;;7.00;;
29358;SDS011;16347;53.232;6.556;2023-11-19T02:00:12;50.25;;;5.80;;
29358;SDS011;16347;53.232;6.556;2023-11-19T02:02:42;62.65;;;6.70;;
29358;SDS011;16347;53.232;6.556;2023-11-19T02:05:11;51.22;;;6.18;;
29358;SDS011;16347;53.232;6.556;2023-11-19T02:07:40;55.92;;;6.47;;
29358;SDS011;16347;53.232;6.556;2023-11-19T02:10:08;57.85;;;6.68;;
29358;SDS011;16347;53.232;6.556;2023-11-19T02:12:42;37.85;;;5.63;;
29358;SDS011;16347;53.232;6.556;2023-11-19T02:15:11;51.60;;;5.82;;
29358;SDS011;16347;53.232;6.556;2023-11-19T02:17:39;56.13;;;7.20;;
29358;SDS011;16347;53.232;6.556;2023-11-19T02:20:07;55.55;;;6.75;;
29358;SDS011;16347;53.232;6.556;2023-11-19T02:22:38;48.05;;;6.13;;
29358;SDS011;16347;53.232;6.556;2023-11-19T02:25:07;40.22;;;5.70;;
29358;SDS011;16347;53.232;6.556;2023-11-19T02:27:44;50.95;;;6.38;;
29358;SDS011;16347;53.232;6.556;2023-11-19T02:30:18;67.85;;;7.35;;
29358;SDS011;16347;53.232;6.556;2023-11-19T02:32:45;50.90;;;8.00;;
29358;SDS011;16347;53.232;6.556;2023-11-19T02:35:14;50.58;;;6.45;;
29358;SDS011;16347;53.232;6.556;2023-11-19T02:37:42;58.08;;;7.75;;
29358;SDS011;16347;53.232;6.556;2023-11-19T02:40:11;48.13;;;6.38;;
29358;SDS011;16347;53.232;6.556;2023-11-19T02:42:40;64.13;;;8.10;;
29358;SDS011;16347;53.232;6.556;2023-11-19T02:45:09;48.05;;;6.50;;
29358;SDS011;16347;53.232;6.556;2023-11-19T02:47:41;62.63;;;6.93;;
29358;SDS011;16347;53.232;6.556;2023-11-19T02:50:10;55.05;;;7.65;;
29358;SDS011;16347;53.232;6.556;2023-11-19T02:52:41;62.22;;;7.25;;
29358;SDS011;16347;53.232;6.556;2023-11-19T02:55:09;55.03;;;8.85;;
29358;SDS011;16347;53.232;6.556;2023-11-19T02:57:39;44.80;;;6.32;;
29358;SDS011;16347;53.232;6.556;2023-11-19T03:00:14;58.05;;;5.90;;
29358;SDS011;16347;53.232;6.556;2023-11-19T03:02:43;43.97;;;6.53;;
29358;SDS011;16347;53.232;6.556;2023-11-19T03:05:12;56.00;;;7.20;;
29358;SDS011;16347;53.232;6.556;2023-11-19T03:07:41;48.17;;;6.82;;
29358;SDS011;16347;53.232;6.556;2023-11-19T03:10:12;51.88;;;8.25;;
29358;SDS011;16347;53.232;6.556;2023-11-19T03:12:41;55.60;;;6.20;;
29358;SDS011;16347;53.232;6.556;2023-11-19T03:15:10;69.40;;;7.50;;
29358;SDS011;16347;53.232;6.556;2023-11-19T03:17:56;55.10;;;7.18;;
29358;SDS011;16347;53.232;6.556;2023-11-19T03:20:24;53.33;;;7.15;;
29358;SDS011;16347;53.232;6.556;2023-11-19T03:22:54;47.08;;;5.35;;
29358;SDS011;16347;53.232;6.556;2023-11-19T03:25:22;54.17;;;7.07;;
29358;SDS011;16347;53.232;6.556;2023-11-19T03:27:49;60.67;;;7.55;;
29358;SDS011;16347;53.232;6.556;2023-11-19T03:30:17;42.97;;;6.30;;
29358;SDS011;16347;53.232;6.556;2023-11-19T03:33:01;58.03;;;6.95;;
29358;SDS011;16347;53.232;6.556;2023-11-19T03:35:29;53.42;;;6.03;;
29358;SDS011;16347;53.232;6.556;2023-11-19T03:37:59;53.83;;;6.78;;
29358;SDS011;16347;53.232;6.556;2023-11-19T03:40:28;48.70;;;6.03;;
29358;SDS011;16347;53.232;6.556;2023-11-19T03:42:57;40.58;;;6.35;;
29358;SDS011;16347;53.232;6.556;2023-11-19T03:45:25;49.85;;;6.53;;
29358;SDS011;16347;53.232;6.556;2023-11-19T03:47:53;71.45;;;7.45;;
29358;SDS011;16347;53.232;6.556;2023-11-19T03:50:22;45.25;;;6.50;;
29358;SDS011;16347;53.232;6.556;2023-11-19T03:52:50;53.92;;;7.22;;
29358;SDS011;16347;53.232;6.556;2023-11-19T03:55:19;44.97;;;5.65;;
29358;SDS011;16347;53.232;6.556;2023-11-19T03:57:47;46.28;;;5.80;;
29358;SDS011;16347;53.232;6.556;2023-11-19T04:00:15;55.47;;;7.28;;
29358;SDS011;16347;53.232;6.556;2023-11-19T04:02:43;51.28;;;6.70;;
29358;SDS011;16347;53.232;6.556;2023-11-19T04:05:13;54.75;;;6.82;;
29358;SDS011;16347;53.232;6.556;2023-11-19T04:07:42;53.55;;;6.22;;
29358;SDS011;16347;53.232;6.556;2023-11-19T04:10:10;58.92;;;7.00;;
29358;SDS011;16347;53.232;6.556;2023-11-19T04:12:38;53.17;;;6.60;;
29358;SDS011;16347;53.232;6.556;2023-11-19T04:15:06;54.92;;;6.43;;
29358;SDS011;16347;53.232;6.556;2023-11-19T04:17:35;59.33;;;6.78;;
29358;SDS011;16347;53.232;6.556;2023-11-19T04:20:03;63.85;;;8.65;;
29358;SDS011;16347;53.232;6.556;2023-11-19T04:22:32;58.13;;;7.07;;
29358;SDS011;16347;53.232;6.556;2023-11-19T04:25:01;52.90;;;6.50;;
29358;SDS011;16347;53.232;6.556;2023-11-19T04:27:31;62.65;;;7.80;;
29358;SDS011;16347;53.232;6.556;2023-11-19T04:29:59;59.20;;;7.97;;
29358;SDS011;16347;53.232;6.556;2023-11-19T04:32:28;61.35;;;6.65;;
29358;SDS011;16347;53.232;6.556;2023-11-19T04:34:56;54.22;;;7.45;;
29358;SDS011;16347;53.232;6.556;2023-11-19T04:37:24;57.65;;;8.23;;
29358;SDS011;16347;53.232;6.556;2023-11-19T04:39:52;49.88;;;6.90;;
29358;SDS011;16347;53.232;6.556;2023-11-19T04:42:23;63.53;;;6.85;;
29358;SDS011;16347;53.232;6.556;2023-11-19T04:44:51;65.13;;;8.38;;
29358;SDS011;16347;53.232;6.556;2023-11-19T04:47:19;60.22;;;8.57;;
29358;SDS011;16347;53.232;6.556;2023-11-19T04:49:47;64.78;;;8.70;;
29358;SDS011;16347;53.232;6.556;2023-11-19T04:52:15;64.35;;;7.85;;
29358;SDS011;16347;53.232;6.556;2023-11-19T04:54:43;66.00;;;8.73;;
29358;SDS011;16347;53.232;6.556;2023-11-19T04:57:11;56.47;;;8.10;;
29358;SDS011;16347;53.232;6.556;2023-11-19T04:59:40;50.20;;;8.05;;
29358;SDS011;16347;53.232;6.556;2023-11-19T05:02:08;62.58;;;6.80;;
29358;SDS011;16347;53.232;6.556;2023-11-19T05:04:36;58.50;;;9.13;;
29358;SDS011;16347;53.232;6.556;2023-11-19T05:07:05;67.55;;;9.35;;
29358;SDS011;16347;53.232;6.556;2023-11-19T05:09:33;59.97;;;7.80;;
29358;SDS011;16347;53.232;6.556;2023-11-19T05:12:01;62.17;;;9.13;;
29358;SDS011;16347;53.232;6.556;2023-11-19T05:14:29;74.93;;;8.45;;
29358;SDS011;16347;53.232;6.556;2023-11-19T05:16:58;57.78;;;8.68;;
29358;SDS011;16347;53.232;6.556;2023-11-19T05:19:26;64.97;;;8.43;;
29358;SDS011;16347;53.232;6.556;2023-11-19T05:21:54;60.92;;;8.50;;
29358;SDS011;16347;53.232;6.556;2023-11-19T05:24:22;67.90;;;8.95;;
29358;SDS011;16347;53.232;6.556;2023-11-19T05:26:49;70.03;;;7.70;;
29358;SDS011;16347;53.232;6.556;2023-11-19T05:29:17;53.05;;;7.90;;
29358;SDS011;16347;53.232;6.556;2023-11-19T05:31:46;69.90;;;9.00;;
29358;SDS011;16347;53.232;6.556;2023-11-19T05:34:15;55.90;;;8.10;;
29358;SDS011;16347;53.232;6.556;2023-11-19T05:36:43;59.15;;;7.40;;
29358;SDS011;16347;53.232;6.556;2023-11-19T05:39:11;80.82;;;9.02;;
29358;SDS011;16347;53.232;6.556;2023-11-19T05:41:39;57.78;;;7.43;;
29358;SDS011;16347;53.232;6.556;2023-11-19T05:44:07;59.30;;;7.50;;
29358;SDS011;16347;53.232;6.556;2023-11-19T05:46:34;58.83;;;7.63;;
29358;SDS011;16347;53.232;6.556;2023-11-19T05:49:06;62.05;;;7.55;;
29358;SDS011;16347;53.232;6.556;2023-11-19T05:51:37;72.93;;;9.57;;
29358;SDS011;16347;53.232;6.556;2023-11-19T05:54:06;65.47;;;7.65;;
29358;SDS011;16347;53.232;6.556;2023-11-19T05:56:34;69.68;;;9.85;;
29358;SDS011;16347;53.232;6.556;2023-11-19T05:59:02;60.95;;;8.05;;
29358;SDS011;16347;53.232;6.556;2023-11-19T06:01:33;59.72;;;8.65;;
29358;SDS011;16347;53.232;6.556;2023-11-19T06:04:02;58.92;;;7.97;;
29358;SDS011;16347;53.232;6.556;2023-11-19T06:06:31;66.72;;;9.13;;
29358;SDS011;16347;53.232;6.556;2023-11-19T06:09:00;68.18;;;8.20;;
29358;SDS011;16347;53.232;6.556;2023-11-19T06:11:35;77.15;;;7.85;;
29358;SDS011;16347;53.232;6.556;2023-11-19T06:14:03;66.35;;;7.75;;
29358;SDS011;16347;53.232;6.556;2023-11-19T06:16:32;81.95;;;9.65;;
29358;SDS011;16347;53.232;6.556;2023-11-19T06:19:00;55.65;;;7.82;;
29358;SDS011;16347;53.232;6.556;2023-11-19T06:21:28;74.65;;;8.27;;
29358;SDS011;16347;53.232;6.556;2023-11-19T06:23:56;62.35;;;9.32;;
29358;SDS011;16347;53.232;6.556;2023-11-19T06:26:27;81.65;;;9.05;;
29358;SDS011;16347;53.232;6.556;2023-11-19T06:28:54;52.33;;;7.93;;
29358;SDS011;16347;53.232;6.556;2023-11-19T06:31:22;71.90;;;8.45;;
29358;SDS011;16347;53.232;6.556;2023-11-19T06:33:50;66.22;;;8.38;;
29358;SDS011;16347;53.232;6.556;2023-11-19T06:36:18;53.15;;;8.68;;
29358;SDS011;16347;53.232;6.556;2023-11-19T06:38:47;55.83;;;7.25;;
29358;SDS011;16347;53.232;6.556;2023-11-19T06:41:15;65.80;;;8.60;;
29358;SDS011;16347;53.232;6.556;2023-11-19T06:43:44;70.20;;;9.38;;
29358;SDS011;16347;53.232;6.556;2023-11-19T06:46:15;66.10;;;8.45;;
29358;SDS011;16347;53.232;6.556;2023-11-19T06:48:43;61.30;;;8.57;;
29358;SDS011;16347;53.232;6.556;2023-11-19T06:51:11;62.47;;;8.95;;
29358;SDS011;16347;53.232;6.556;2023-11-19T06:53:40;63.50;;;7.65;;
29358;SDS011;16347;53.232;6.556;2023-11-19T06:56:17;51.35;;;7.43;;
29358;SDS011;16347;53.232;6.556;2023-11-19T06:58:46;75.00;;;8.85;;
29358;SDS011;16347;53.232;6.556;2023-11-19T07:01:15;59.92;;;7.75;;
29358;SDS011;16347;53.232;6.556;2023-11-19T07:03:44;55.03;;;8.02;;
29358;SDS011;16347;53.232;6.556;2023-11-19T07:06:13;52.47;;;7.95;;
29358;SDS011;16347;53.232;6.556;2023-11-19T07:08:41;57.80;;;8.65;;
29358;SDS011;16347;53.232;6.556;2023-11-19T07:11:11;66.38;;;8.15;;
29358;SDS011;16347;53.232;6.556;2023-11-19T07:13:40;67.70;;;8.48;;
29358;SDS011;16347;53.232;6.556;2023-11-19T07:16:10;68.50;;;9.02;;
29358;SDS011;16347;53.232;6.556;2023-11-19T07:18:38;74.22;;;9.98;;
29358;SDS011;16347;53.232;6.556;2023-11-19T07:21:06;60.45;;;7.72;;
29358;SDS011;16347;53.232;6.556;2023-11-19T07:23:37;68.75;;;9.05;;
29358;SDS011;16347;53.232;6.556;2023-11-19T07:26:05;61.03;;;7.85;;
29358;SDS011;16347;53.232;6.556;2023-11-19T07:28:35;62.80;;;8.43;;
29358;SDS011;16347;53.232;6.556;2023-11-19T07:31:04;71.80;;;8.75;;
29358;SDS011;16347;53.232;6.556;2023-11-19T07:33:35;62.42;;;8.05;;
29358;SDS011;16347;53.232;6.556;2023-11-19T07:36:04;59.63;;;8.13;;
29358;SDS011;16347;53.232;6.556;2023-11-19T07:38:32;79.40;;;10.18;;
29358;SDS011;16347;53.232;6.556;2023-11-19T07:41:00;58.15;;;7.40;;
29358;SDS011;16347;53.232;6.556;2023-11-19T07:43:28;70.20;;;8.10;;
29358;SDS011;16347;53.232;6.556;2023-11-19T07:45:55;72.43;;;8.68;;
29358;SDS011;16347;53.232;6.556;2023-11-19T07:48:25;55.42;;;8.40;;
29358;SDS011;16347;53.232;6.556;2023-11-19T07:50:55;48.35;;;7.70;;
29358;SDS011;16347;53.232;6.556;2023-11-19T07:53:23;57.53;;;9.13;;
29358;SDS011;16347;53.232;6.556;2023-11-19T07:55:51;67.38;;;9.57;;
29358;SDS011;16347;53.232;6.556;2023-11-19T07:58:19;57.92;;;8.93;;
29358;SDS011;16347;53.232;6.556;2023-11-19T08:00:47;63.55;;;7.43;;
29358;SDS011;16347;53.232;6.556;2023-11-19T08:03:15;57.75;;;9.35;;
29358;SDS011;16347;53.232;6.556;2023-11-19T08:05:43;59.03;;;7.85;;
29358;SDS011;16347;53.232;6.556;2023-11-19T08:08:12;57.55;;;8.10;;
29358;SDS011;16347;53.232;6.556;2023-11-19T08:10:40;58.55;;;9.13;;
29358;SDS011;16347;53.232;6.556;2023-11-19T08:13:08;66.93;;;9.25;;
29358;SDS011;16347;53.232;6.556;2023-11-19T08:15:36;54.45;;;7.68;;
29358;SDS011;16347;53.232;6.556;2023-11-19T08:18:04;60.65;;;7.60;;
29358;SDS011;16347;53.232;6.556;2023-11-19T08:20:33;59.95;;;7.18;;
29358;SDS011;16347;53.232;6.556;2023-11-19T08:23:02;60.90;;;7.88;;
29358;SDS011;16347;53.232;6.556;2023-11-19T08:25:32;59.33;;;7.15;;
29358;SDS011;16347;53.232;6.556;2023-11-19T08:28:00;58.63;;;8.10;;
29358;SDS011;16347;53.232;6.556;2023-11-19T08:30:30;67.20;;;7.95;;
29358;SDS011;16347;53.232;6.556;2023-11-19T08:32:58;51.30;;;8.25;;
29358;SDS011;16347;53.232;6.556;2023-11-19T08:35:29;53.42;;;9.35;;
29358;SDS011;16347;53.232;6.556;2023-11-19T08:37:57;75.00;;;7.47;;
29358;SDS011;16347;53.232;6.556;2023-11-19T08:40:25;54.95;;;7.47;;
29358;SDS011;16347;53.232;6.556;2023-11-19T08:42:54;49.17;;;7.57;;
29358;SDS011;16347;53.232;6.556;2023-11-19T08:45:22;58.92;;;8.05;;
29358;SDS011;16347;53.232;6.556;2023-11-19T08:47:50;57.67;;;7.90;;
29358;SDS011;16347;53.232;6.556;2023-11-19T08:50:19;64.68;;;8.75;;
29358;SDS011;16347;53.232;6.556;2023-11-19T08:52:46;56.90;;;8.40;;
29358;SDS011;16347;53.232;6.556;2023-11-19T08:55:14;69.97;;;8.75;;
29358;SDS011;16347;53.232;6.556;2023-11-19T08:57:43;66.25;;;8.50;;
29358;SDS011;16347;53.232;6.556;2023-11-19T09:00:13;54.13;;;7.22;;
29358;SDS011;16347;53.232;6.556;2023-11-19T09:02:41;60.47;;;9.27;;
29358;SDS011;16347;53.232;6.556;2023-11-19T09:05:10;62.78;;;7.70;;
29358;SDS011;16347;53.232;6.556;2023-11-19T09:07:39;58.17;;;8.07;;
29358;SDS011;16347;53.232;6.556;2023-11-19T09:10:07;65.10;;;8.80;;
29358;SDS011;16347;53.232;6.556;2023-11-19T09:12:36;66.95;;;10.57;;
29358;SDS011;16347;53.232;6.556;2023-11-19T09:15:04;67.47;;;8.73;;
29358;SDS011;16347;53.232;6.556;2023-11-19T09:17:35;65.35;;;10.05;;
29358;SDS011;16347;53.232;6.556;2023-11-19T09:20:03;69.22;;;8.80;;
29358;SDS011;16347;53.232;6.556;2023-11-19T09:22:31;47.35;;;6.50;;
29358;SDS011;16347;53.232;6.556;2023-11-19T09:24:59;72.32;;;9.57;;
29358;SDS011;16347;53.232;6.556;2023-11-19T09:27:27;65.53;;;8.13;;
29358;SDS011;16347;53.232;6.556;2023-11-19T09:29:55;58.50;;;7.20;;
29358;SDS011;16347;53.232;6.556;2023-11-19T09:32:25;59.17;;;7.68;;
29358;SDS011;16347;53.232;6.556;2023-11-19T09:34:54;64.50;;;7.80;;
29358;SDS011;16347;53.232;6.556;2023-11-19T09:37:22;69.88;;;8.90;;
29358;SDS011;16347;53.232;6.556;2023-11-19T09:39:50;64.63;;;7.57;;
29358;SDS011;16347;53.232;6.556;2023-11-19T09:42:19;58.00;;;8.30;;
29358;SDS011;16347;53.232;6.556;2023-11-19T09:44:47;71.47;;;8.73;;
29358;SDS011;16347;53.232;6.556;2023-11-19T09:47:17;78.32;;;8.38;;
29358;SDS011;16347;53.232;6.556;2023-11-19T09:49:47;56.33;;;8.20;;
29358;SDS011;16347;53.232;6.556;2023-11-19T09:52:18;66.50;;;8.50;;
29358;SDS011;16347;53.232;6.556;2023-11-19T09:54:45;57.97;;;7.45;;
29358;SDS011;16347;53.232;6.556;2023-11-19T09:57:13;58.97;;;7.72;;
29358;SDS011;16347;53.232;6.556;2023-11-19T09:59:44;67.95;;;8.90;;
29358;SDS011;16347;53.232;6.556;2023-11-19T10:02:13;67.55;;;8.40;;
29358;SDS011;16347;53.232;6.556;2023-11-19T10:04:42;60.13;;;7.70;;
29358;SDS011;16347;53.232;6.556;2023-11-19T10:07:13;61.75;;;7.47;;
29358;SDS011;16347;53.232;6.556;2023-11-19T10:09:43;53.80;;;7.88;;
29358;SDS011;16347;53.232;6.556;2023-11-19T10:12:10;60.30;;;7.72;;
29358;SDS011;16347;53.232;6.556;2023-11-19T10:14:38;62.33;;;8.25;;
29358;SDS011;16347;53.232;6.556;2023-11-19T10:17:07;61.00;;;8.10;;
29358;SDS011;16347;53.232;6.556;2023-11-19T10:19:35;51.92;;;7.32;;
29358;SDS011;16347;53.232;6.556;2023-11-19T10:22:04;50.42;;;6.70;;
29358;SDS011;16347;53.232;6.556;2023-11-19T10:24:32;62.38;;;7.90;;
29358;SDS011;16347;53.232;6.556;2023-11-19T10:27:07;62.83;;;7.67;;
29358;SDS011;16347;53.232;6.556;2023-11-19T10:29:36;64.28;;;7.97;;
29358;SDS011;16347;53.232;6.556;2023-11-19T10:32:04;59.47;;;9.13;;
29358;SDS011;16347;53.232;6.556;2023-11-19T10:34:52;58.88;;;7.25;;
29358;SDS011;16347;53.232;6.556;2023-11-19T10:37:32;44.45;;;6.40;;
29358;SDS011;16347;53.232;6.556;2023-11-19T10:40:02;61.85;;;7.60;;
29358;SDS011;16347;53.232;6.556;2023-11-19T10:42:33;56.95;;;6.78;;
29358;SDS011;16347;53.232;6.556;2023-11-19T10:45:01;52.88;;;7.25;;
29358;SDS011;16347;53.232;6.556;2023-11-19T10:47:29;55.17;;;6.75;;
29358;SDS011;16347;53.232;6.556;2023-11-19T10:50:01;53.42;;;8.23;;
29358;SDS011;16347;53.232;6.556;2023-11-19T10:52:29;54.20;;;7.43;;
29358;SDS011;16347;53.232;6.556;2023-11-19T10:54:58;55.28;;;7.25;;
29358;SDS011;16347;53.232;6.556;2023-11-19T10:57:28;63.55;;;8.27;;
29358;SDS011;16347;53.232;6.556;2023-11-19T11:00:01;66.65;;;8.48;;
29358;SDS011;16347;53.232;6.556;2023-11-19T11:02:37;67.03;;;7.88;;
29358;SDS011;16347;53.232;6.556;2023-11-19T11:05:09;67.15;;;8.30;;
29358;SDS011;16347;53.232;6.556;2023-11-19T11:07:38;47.17;;;6.38;;
29358;SDS011;16347;53.232;6.556;2023-11-19T11:10:08;52.97;;;6.47;;
29358;SDS011;16347;53.232;6.556;2023-11-19T11:12:39;49.95;;;6.80;;
29358;SDS011;16347;53.232;6.556;2023-11-19T11:15:10;68.03;;;7.38;;
29358;SDS011;16347;53.232;6.556;2023-11-19T11:17:39;50.63;;;7.22;;
29358;SDS011;16347;53.232;6.556;2023-11-19T11:20:10;54.38;;;7.82;;
29358;SDS011;16347;53.232;6.556;2023-11-19T11:22:40;43.88;;;6.15;;
29358;SDS011;16347;53.232;6.556;2023-11-19T11:25:19;58.25;;;6.80;;
29358;SDS011;16347;53.232;6.556;2023-11-19T11:28:15;63.05;;;6.40;;
29358;SDS011;16347;53.232;6.556;2023-11-19T11:31:03;50.17;;;6.25;;
29358;SDS011;16347;53.232;6.556;2023-11-19T11:36:45;50.90;;;6.55;;
29358;SDS011;16347;53.232;6.556;2023-11-19T11:39:21;46.03;;;5.65;;
29358;SDS011;16347;53.232;6.556;2023-11-19T11:42:04;54.03;;;5.88;;
29358;SDS011;16347;53.232;6.556;2023-11-19T11:44:58;45.40;;;8.52;;
29358;SDS011;16347;53.232;6.556;2023-11-19T11:50:55;52.60;;;7.18;;
29358;SDS011;16347;53.232;6.556;2023-11-19T11:53:25;54.17;;;6.35;;
29358;SDS011;16347;53.232;6.556;2023-11-19T11:55:57;51.45;;;5.70;;
29358;SDS011;16347;53.232;6.556;2023-11-19T11:58:30;46.72;;;5.93;;
29358;SDS011;16347;53.232;6.556;2023-11-19T12:01:04;57.05;;;7.15;;
29358;SDS011;16347;53.232;6.556;2023-11-19T12:03:37;54.25;;;6.50;;
29358;SDS011;16347;53.232;6.556;2023-11-19T12:06:06;44.90;;;6.70;;
29358;SDS011;16347;53.232;6.556;2023-11-19T12:08:34;46.83;;;6.57;;
29358;SDS011;16347;53.232;6.556;2023-11-19T12:11:19;43.38;;;5.85;;
29358;SDS011;16347;53.232;6.556;2023-11-19T12:13:52;58.53;;;8.48;;
29358;SDS011;16347;53.232;6.556;2023-11-19T12:16:24;46.60;;;5.75;;
29358;SDS011;16347;53.232;6.556;2023-11-19T12:18:54;49.60;;;6.47;;
29358;SDS011;16347;53.232;6.556;2023-11-19T12:21:30;44.63;;;6.18;;
29358;SDS011;16347;53.232;6.556;2023-11-19T12:23:59;52.78;;;7.43;;
29358;SDS011;16347;53.232;6.556;2023-11-19T12:26:34;52.35;;;6.47;;
29358;SDS011;16347;53.232;6.556;2023-11-19T12:29:04;55.45;;;7.07;;
29358;SDS011;16347;53.232;6.556;2023-11-19T12:31:35;55.83;;;6.97;;
29358;SDS011;16347;53.232;6.556;2023-11-19T12:34:07;57.03;;;6.38;;
29358;SDS011;16347;53.232;6.556;2023-11-19T12:36:41;43.38;;;5.35;;
29358;SDS011;16347;53.232;6.556;2023-11-19T12:39:09;51.40;;;6.80;;
29358;SDS011;16347;53.232;6.556;2023-11-19T12:41:50;60.22;;;7.47;;
29358;SDS011;16347;53.232;6.556;2023-11-19T12:44:21;47.65;;;5.85;;
29358;SDS011;16347;53.232;6.556;2023-11-19T12:47:02;61.20;;;6.90;;
29358;SDS011;16347;53.232;6.556;2023-11-19T12:49:33;33.13;;;5.15;;
29358;SDS011;16347;53.232;6.556;2023-11-19T12:52:10;48.95;;;6.10;;
29358;SDS011;16347;53.232;6.556;2023-11-19T12:54:40;39.75;;;5.20;;
29358;SDS011;16347;53.232;6.556;2023-11-19T12:57:08;50.05;;;6.57;;
29358;SDS011;16347;53.232;6.556;2023-11-19T12:59:36;29.13;;;5.00;;
29358;SDS011;16347;53.232;6.556;2023-11-19T13:02:03;47.97;;;6.15;;
29358;SDS011;16347;53.232;6.556;2023-11-19T13:04:33;43.38;;;5.00;;
29358;SDS011;16347;53.232;6.556;2023-11-19T13:07:02;37.88;;;6.30;;
29358;SDS011;16347;53.232;6.556;2023-11-19T13:09:32;44.78;;;5.72;;
29358;SDS011;16347;53.232;6.556;2023-11-19T13:12:11;46.42;;;5.80;;
29358;SDS011;16347;53.232;6.556;2023-11-19T13:14:41;58.20;;;7.38;;
29358;SDS011;16347;53.232;6.556;2023-11-19T13:17:14;40.72;;;5.75;;
29358;SDS011;16347;53.232;6.556;2023-11-19T13:19:42;40.55;;;5.97;;
29358;SDS011;16347;53.232;6.556;2023-11-19T13:22:12;45.30;;;6.03;;
29358;SDS011;16347;53.232;6.556;2023-11-19T13:24:40;49.10;;;5.70;;
29358;SDS011;16347;53.232;6.556;2023-11-19T13:27:09;48.40;;;5.95;;
29358;SDS011;16347;53.232;6.556;2023-11-19T13:29:37;52.00;;;6.43;;
29358;SDS011;16347;53.232;6.556;2023-11-19T13:32:05;40.97;;;6.07;;
29358;SDS011;16347;53.232;6.556;2023-11-19T13:34:33;52.33;;;6.63;;
29358;SDS011;16347;53.232;6.556;2023-11-19T13:37:01;43.88;;;5.72;;
29358;SDS011;16347;53.232;6.556;2023-11-19T13:39:30;38.60;;;5.78;;
29358;SDS011;16347;53.232;6.556;2023-11-19T13:41:58;46.40;;;5.85;;
29358;SDS011;16347;53.232;6.556;2023-11-19T13:44:30;49.42;;;5.97;;
29358;SDS011;16347;53.232;6.556;2023-11-19T13:46:58;40.75;;;5.70;;
29358;SDS011;16347;53.232;6.556;2023-11-19T13:49:26;55.20;;;7.05;;
29358;SDS011;16347;53.232;6.556;2023-11-19T13:51:55;52.78;;;7.03;;
29358;SDS011;16347;53.232;6.556;2023-11-19T13:54:22;49.50;;;5.15;;
29358;SDS011;16347;53.232;6.556;2023-11-19T13:56:54;44.28;;;6.50;;
29358;SDS011;16347;53.232;6.556;2023-11-19T13:59:24;55.60;;;7.20;;
29358;SDS011;16347;53.232;6.556;2023-11-19T14:01:52;50.60;;;5.80;;
29358;SDS011;16347;53.232;6.556;2023-11-19T14:04:20;57.88;;;5.95;;
29358;SDS011;16347;53.232;6.556;2023-11-19T14:06:48;48.78;;;7.50;;
29358;SDS011;16347;53.232;6.556;2023-11-19T14:09:16;43.40;;;5.20;;
29358;SDS011;16347;53.232;6.556;2023-11-19T14:11:43;40.72;;;6.32;;
29358;SDS011;16347;53.232;6.556;2023-11-19T14:14:13;45.80;;;5.65;;
29358;SDS011;16347;53.232;6.556;2023-11-19T14:16:42;34.88;;;5.75;;
29358;SDS011;16347;53.232;6.556;2023-11-19T14:19:11;48.08;;;6.03;;
29358;SDS011;16347;53.232;6.556;2023-11-19T14:21:40;46.40;;;5.88;;
29358;SDS011;16347;53.232;6.556;2023-11-19T14:24:08;43.83;;;5.65;;
29358;SDS011;16347;53.232;6.556;2023-11-19T14:26:36;45.72;;;6.32;;
29358;SDS011;16347;53.232;6.556;2023-11-19T14:29:04;43.10;;;5.55;;
29358;SDS011;16347;53.232;6.556;2023-11-19T14:31:33;46.50;;;5.93;;
29358;SDS011;16347;53.232;6.556;2023-11-19T14:34:02;40.78;;;5.85;;
29358;SDS011;16347;53.232;6.556;2023-11-19T14:36:29;45.92;;;6.57;;
29358;SDS011;16347;53.232;6.556;2023-11-19T14:38:57;55.80;;;7.43;;
29358;SDS011;16347;53.232;6.556;2023-11-19T14:41:26;48.08;;;6.13;;
29358;SDS011;16347;53.232;6.556;2023-11-19T14:43:53;35.03;;;5.28;;
29358;SDS011;16347;53.232;6.556;2023-11-19T14:46:21;39.58;;;5.63;;
29358;SDS011;16347;53.232;6.556;2023-11-19T14:48:50;56.05;;;7.85;;
29358;SDS011;16347;53.232;6.556;2023-11-19T14:51:19;56.40;;;7.53;;
29358;SDS011;16347;53.232;6.556;2023-11-19T14:53:46;49.03;;;6.60;;